sensor_id;sensor_type;location;lat;lon;timestamp;temperature;humidity
30304;DHT22;17112;48.636;10.152;2023-11-21T00:02:21;10.50;72.40
30304;DHT22;17112;48.636;10.152;2023-11-21T00:04:48;10.50;72.30
30304;DHT22;17112;48.636;10.152;2023-11-21T00:07:14;10.40;72.40
30304;DHT22;17112;48.636;10.152;2023-11-21T00:09:40;10.40;72.50
30304;DHT22;17112;48.636;10.152;2023-11-21T00:12:07;10.40;72.60
30304;DHT22;17112;48.636;10.152;2023-11-21T00:14:36;10.40;72.60
30304;DHT22;17112;48.636;10.152;2023-11-21T00:17:02;10.40;72.60
30304;DHT22;17112;48.636;10.152;2023-11-21T00:19:28;10.40;72.60
30304;DHT22;17112;48.636;10.152;2023-11-21T00:21:54;10.40;72.60
30304;DHT22;17112;48.636;10.152;2023-11-21T00:24:19;10.40;72.60
30304;DHT22;17112;48.636;10.152;2023-11-21T00:26:45;10.40;72.70
30304;DHT22;17112;48.636;10.152;2023-11-21T00:29:11;10.40;72.80
30304;DHT22;17112;48.636;10.152;2023-11-21T00:31:37;10.40;72.90
30304;DHT22;17112;48.636;10.152;2023-11-21T00:34:04;10.50;72.90
30304;DHT22;17112;48.636;10.152;2023-11-21T00:36:34;10.40;72.90
30304;DHT22;17112;48.636;10.152;2023-11-21T00:38:59;10.40;72.90
30304;DHT22;17112;48.636;10.152;2023-11-21T00:41:25;10.40;72.80
30304;DHT22;17112;48.636;10.152;2023-11-21T00:43:54;10.40;72.80
30304;DHT22;17112;48.636;10.152;2023-11-21T00:46:21;10.40;72.80
30304;DHT22;17112;48.636;10.152;2023-11-21T00:48:46;10.40;72.90
30304;DHT22;17112;48.636;10.152;2023-11-21T00:51:12;10.40;73.00
30304;DHT22;17112;48.636;10.152;2023-11-21T00:53:38;10.50;73.10
30304;DHT22;17112;48.636;10.152;2023-11-21T00:56:03;10.40;73.10
30304;DHT22;17112;48.636;10.152;2023-11-21T00:58:29;10.40;73.10
30304;DHT22;17112;48.636;10.152;2023-11-21T01:00:55;10.50;73.20
30304;DHT22;17112;48.636;10.152;2023-11-21T01:03:21;10.40;73.10
30304;DHT22;17112;48.636;10.152;2023-11-21T01:05:47;10.40;73.10
30304;DHT22;17112;48.636;10.152;2023-11-21T01:08:15;10.40;73.00
30304;DHT22;17112;48.636;10.152;2023-11-21T01:10:40;10.40;73.00
30304;DHT22;17112;48.636;10.152;2023-11-21T01:13:06;10.40;73.10
30304;DHT22;17112;48.636;10.152;2023-11-21T01:15:35;10.40;73.10
30304;DHT22;17112;48.636;10.152;2023-11-21T01:18:01;10.40;73.00
30304;DHT22;17112;48.636;10.152;2023-11-21T01:20:26;10.40;72.90
30304;DHT22;17112;48.636;10.152;2023-11-21T01:22:52;10.30;72.90
30304;DHT22;17112;48.636;10.152;2023-11-21T01:25:19;10.30;72.70
30304;DHT22;17112;48.636;10.152;2023-11-21T01:27:46;10.30;72.80
30304;DHT22;17112;48.636;10.152;2023-11-21T01:30:12;10.30;72.90
30304;DHT22;17112;48.636;10.152;2023-11-21T01:32:38;10.20;72.80
30304;DHT22;17112;48.636;10.152;2023-11-21T01:35:05;10.20;72.80
30304;DHT22;17112;48.636;10.152;2023-11-21T01:37:32;10.20;72.90
30304;DHT22;17112;48.636;10.152;2023-11-21T01:39:58;10.10;72.90
30304;DHT22;17112;48.636;10.152;2023-11-21T01:42:24;10.10;73.10
30304;DHT22;17112;48.636;10.152;2023-11-21T01:44:50;10.10;73.10
30304;DHT22;17112;48.636;10.152;2023-11-21T01:47:16;10.10;73.20
30304;DHT22;17112;48.636;10.152;2023-11-21T01:49:45;10.10;73.30
30304;DHT22;17112;48.636;10.152;2023-11-21T01:52:12;10.10;73.50
30304;DHT22;17112;48.636;10.152;2023-11-21T01:54:38;10.10;73.40
30304;DHT22;17112;48.636;10.152;2023-11-21T01:57:05;10.10;73.50
30304;DHT22;17112;48.636;10.152;2023-11-21T01:59:38;10.10;73.50
30304;DHT22;17112;48.636;10.152;2023-11-21T02:02:07;10.10;73.90
30304;DHT22;17112;48.636;10.152;2023-11-21T02:04:34;10.10;73.60
30304;DHT22;17112;48.636;10.152;2023-11-21T02:07:00;10.10;73.60
30304;DHT22;17112;48.636;10.152;2023-11-21T02:09:27;10.10;74.30
30304;DHT22;17112;48.636;10.152;2023-11-21T02:11:53;10.10;73.60
30304;DHT22;17112;48.636;10.152;2023-11-21T02:14:24;10.10;73.60
30304;DHT22;17112;48.636;10.152;2023-11-21T02:16:52;10.10;73.60
30304;DHT22;17112;48.636;10.152;2023-11-21T02:19:19;10.10;73.60
30304;DHT22;17112;48.636;10.152;2023-11-21T02:21:49;10.00;73.60
30304;DHT22;17112;48.636;10.152;2023-11-21T02:24:21;10.00;73.70
30304;DHT22;17112;48.636;10.152;2023-11-21T02:26:48;10.00;73.80
30304;DHT22;17112;48.636;10.152;2023-11-21T02:29:17;10.00;73.80
30304;DHT22;17112;48.636;10.152;2023-11-21T02:31:44;10.00;73.70
30304;DHT22;17112;48.636;10.152;2023-11-21T02:34:16;10.00;73.90
30304;DHT22;17112;48.636;10.152;2023-11-21T02:36:45;10.10;73.90
30304;DHT22;17112;48.636;10.152;2023-11-21T02:39:11;10.00;74.00
30304;DHT22;17112;48.636;10.152;2023-11-21T02:41:37;10.00;73.90
30304;DHT22;17112;48.636;10.152;2023-11-21T02:44:07;10.10;74.00
30304;DHT22;17112;48.636;10.152;2023-11-21T02:46:33;10.10;74.10
30304;DHT22;17112;48.636;10.152;2023-11-21T02:49:08;10.10;74.10
30304;DHT22;17112;48.636;10.152;2023-11-21T02:51:36;10.10;74.30
30304;DHT22;17112;48.636;10.152;2023-11-21T02:54:03;10.10;74.10
30304;DHT22;17112;48.636;10.152;2023-11-21T02:56:32;10.10;74.10
30304;DHT22;17112;48.636;10.152;2023-11-21T02:58:59;10.10;74.10
30304;DHT22;17112;48.636;10.152;2023-11-21T03:01:25;10.10;74.10
30304;DHT22;17112;48.636;10.152;2023-11-21T03:03:51;10.10;74.10
30304;DHT22;17112;48.636;10.152;2023-11-21T03:06:18;10.10;74.10
30304;DHT22;17112;48.636;10.152;2023-11-21T03:08:44;10.10;74.10
30304;DHT22;17112;48.636;10.152;2023-11-21T03:11:09;10.10;74.10
30304;DHT22;17112;48.636;10.152;2023-11-21T03:13:35;10.10;74.10
30304;DHT22;17112;48.636;10.152;2023-11-21T03:16:01;10.10;74.10
30304;DHT22;17112;48.636;10.152;2023-11-21T03:18:26;10.10;74.10
30304;DHT22;17112;48.636;10.152;2023-11-21T03:20:54;10.20;74.10
30304;DHT22;17112;48.636;10.152;2023-11-21T03:23:20;10.10;74.10
30304;DHT22;17112;48.636;10.152;2023-11-21T03:25:46;10.10;74.10
30304;DHT22;17112;48.636;10.152;2023-11-21T03:28:11;10.10;74.10
30304;DHT22;17112;48.636;10.152;2023-11-21T03:30:37;10.10;74.10
30304;DHT22;17112;48.636;10.152;2023-11-21T03:33:03;10.10;74.10
30304;DHT22;17112;48.636;10.152;2023-11-21T03:35:28;10.10;74.10
30304;DHT22;17112;48.636;10.152;2023-11-21T03:37:54;10.10;74.10
30304;DHT22;17112;48.636;10.152;2023-11-21T03:40:20;10.10;74.10
30304;DHT22;17112;48.636;10.152;2023-11-21T03:42:49;10.10;74.10
30304;DHT22;17112;48.636;10.152;2023-11-21T03:45:14;10.10;74.20
30304;DHT22;17112;48.636;10.152;2023-11-21T03:47:41;10.10;74.20
30304;DHT22;17112;48.636;10.152;2023-11-21T03:50:07;10.10;74.30
30304;DHT22;17112;48.636;10.152;2023-11-21T03:52:34;10.10;74.30
30304;DHT22;17112;48.636;10.152;2023-11-21T03:55:01;10.10;74.30
30304;DHT22;17112;48.636;10.152;2023-11-21T03:57:26;10.10;74.40
30304;DHT22;17112;48.636;10.152;2023-11-21T03:59:53;10.10;74.40
30304;DHT22;17112;48.636;10.152;2023-11-21T04:02:19;10.10;74.30
30304;DHT22;17112;48.636;10.152;2023-11-21T04:04:45;10.10;74.50
30304;DHT22;17112;48.636;10.152;2023-11-21T04:07:10;10.10;74.50
30304;DHT22;17112;48.636;10.152;2023-11-21T04:09:36;10.10;74.40
30304;DHT22;17112;48.636;10.152;2023-11-21T04:12:02;10.10;74.40
30304;DHT22;17112;48.636;10.152;2023-11-21T04:14:28;10.10;74.50
30304;DHT22;17112;48.636;10.152;2023-11-21T04:16:54;10.10;74.60
30304;DHT22;17112;48.636;10.152;2023-11-21T04:19:19;10.10;74.60
30304;DHT22;17112;48.636;10.152;2023-11-21T04:21:46;10.10;74.70
30304;DHT22;17112;48.636;10.152;2023-11-21T04:24:11;10.10;74.70
30304;DHT22;17112;48.636;10.152;2023-11-21T04:26:37;10.10;74.70
30304;DHT22;17112;48.636;10.152;2023-11-21T04:29:03;10.20;74.80
30304;DHT22;17112;48.636;10.152;2023-11-21T04:31:30;10.10;74.70
30304;DHT22;17112;48.636;10.152;2023-11-21T04:33:57;10.10;74.40
30304;DHT22;17112;48.636;10.152;2023-11-21T04:36:23;10.10;74.40
30304;DHT22;17112;48.636;10.152;2023-11-21T04:38:48;10.10;74.50
30304;DHT22;17112;48.636;10.152;2023-11-21T04:41:14;10.10;74.50
30304;DHT22;17112;48.636;10.152;2023-11-21T04:43:40;10.10;74.60
30304;DHT22;17112;48.636;10.152;2023-11-21T04:46:05;10.10;74.70
30304;DHT22;17112;48.636;10.152;2023-11-21T04:48:32;10.10;74.60
30304;DHT22;17112;48.636;10.152;2023-11-21T04:50:58;10.10;74.50
30304;DHT22;17112;48.636;10.152;2023-11-21T04:53:24;10.10;74.60
30304;DHT22;17112;48.636;10.152;2023-11-21T04:55:49;10.10;74.60
30304;DHT22;17112;48.636;10.152;2023-11-21T04:58:15;10.10;74.60
30304;DHT22;17112;48.636;10.152;2023-11-21T05:00:41;10.00;74.50
30304;DHT22;17112;48.636;10.152;2023-11-21T05:03:07;10.00;74.40
30304;DHT22;17112;48.636;10.152;2023-11-21T05:05:33;10.00;74.40
30304;DHT22;17112;48.636;10.152;2023-11-21T05:08:02;10.00;74.40
30304;DHT22;17112;48.636;10.152;2023-11-21T05:10:28;10.00;74.40
30304;DHT22;17112;48.636;10.152;2023-11-21T05:12:54;10.00;74.50
30304;DHT22;17112;48.636;10.152;2023-11-21T05:15:21;10.00;74.50
30304;DHT22;17112;48.636;10.152;2023-11-21T05:17:47;10.00;74.60
30304;DHT22;17112;48.636;10.152;2023-11-21T05:20:15;10.00;74.60
30304;DHT22;17112;48.636;10.152;2023-11-21T05:22:49;10.00;74.60
30304;DHT22;17112;48.636;10.152;2023-11-21T05:25:15;10.00;74.60
30304;DHT22;17112;48.636;10.152;2023-11-21T05:27:44;10.00;74.60
30304;DHT22;17112;48.636;10.152;2023-11-21T05:30:10;10.00;74.70
30304;DHT22;17112;48.636;10.152;2023-11-21T05:32:38;10.00;74.70
30304;DHT22;17112;48.636;10.152;2023-11-21T05:35:04;10.00;74.60
30304;DHT22;17112;48.636;10.152;2023-11-21T05:37:35;10.00;74.60
30304;DHT22;17112;48.636;10.152;2023-11-21T05:40:01;10.00;74.70
30304;DHT22;17112;48.636;10.152;2023-11-21T05:42:34;10.00;74.80
30304;DHT22;17112;48.636;10.152;2023-11-21T05:45:00;10.00;74.60
30304;DHT22;17112;48.636;10.152;2023-11-21T05:47:36;9.90;74.60
30304;DHT22;17112;48.636;10.152;2023-11-21T05:50:03;9.90;74.70
30304;DHT22;17112;48.636;10.152;2023-11-21T05:52:28;9.90;74.60
30304;DHT22;17112;48.636;10.152;2023-11-21T05:54:54;10.00;74.50
30304;DHT22;17112;48.636;10.152;2023-11-21T05:57:20;9.90;74.50
30304;DHT22;17112;48.636;10.152;2023-11-21T05:59:45;9.90;74.70
30304;DHT22;17112;48.636;10.152;2023-11-21T06:02:11;9.90;74.70
30304;DHT22;17112;48.636;10.152;2023-11-21T06:04:37;9.90;74.50
30304;DHT22;17112;48.636;10.152;2023-11-21T06:07:02;9.90;74.50
30304;DHT22;17112;48.636;10.152;2023-11-21T06:09:28;9.90;74.50
30304;DHT22;17112;48.636;10.152;2023-11-21T06:11:54;10.00;74.50
30304;DHT22;17112;48.636;10.152;2023-11-21T06:14:19;10.00;74.50
30304;DHT22;17112;48.636;10.152;2023-11-21T06:16:47;9.90;74.50
30304;DHT22;17112;48.636;10.152;2023-11-21T06:19:13;9.90;74.50
30304;DHT22;17112;48.636;10.152;2023-11-21T06:21:38;9.90;74.60
30304;DHT22;17112;48.636;10.152;2023-11-21T06:24:04;9.90;74.50
30304;DHT22;17112;48.636;10.152;2023-11-21T06:26:30;9.90;74.50
30304;DHT22;17112;48.636;10.152;2023-11-21T06:28:57;9.90;74.40
30304;DHT22;17112;48.636;10.152;2023-11-21T06:31:22;9.90;74.30
30304;DHT22;17112;48.636;10.152;2023-11-21T06:33:48;9.90;74.40
30304;DHT22;17112;48.636;10.152;2023-11-21T06:36:15;9.90;74.30
30304;DHT22;17112;48.636;10.152;2023-11-21T06:38:41;9.90;74.30
30304;DHT22;17112;48.636;10.152;2023-11-21T06:41:07;9.90;74.30
30304;DHT22;17112;48.636;10.152;2023-11-21T06:43:33;9.90;74.40
30304;DHT22;17112;48.636;10.152;2023-11-21T06:45:59;9.90;74.50
30304;DHT22;17112;48.636;10.152;2023-11-21T06:48:25;9.90;74.50
30304;DHT22;17112;48.636;10.152;2023-11-21T06:50:51;9.90;74.60
30304;DHT22;17112;48.636;10.152;2023-11-21T06:53:17;9.90;74.60
30304;DHT22;17112;48.636;10.152;2023-11-21T06:55:43;9.90;74.40
30304;DHT22;17112;48.636;10.152;2023-11-21T06:58:09;9.90;74.30
30304;DHT22;17112;48.636;10.152;2023-11-21T07:00:34;9.90;74.20
30304;DHT22;17112;48.636;10.152;2023-11-21T07:03:00;9.90;74.10
30304;DHT22;17112;48.636;10.152;2023-11-21T07:05:25;9.80;74.20
30304;DHT22;17112;48.636;10.152;2023-11-21T07:07:51;9.80;74.20
30304;DHT22;17112;48.636;10.152;2023-11-21T07:10:19;9.80;74.20
30304;DHT22;17112;48.636;10.152;2023-11-21T07:12:45;9.80;74.20
30304;DHT22;17112;48.636;10.152;2023-11-21T07:15:11;9.80;74.20
30304;DHT22;17112;48.636;10.152;2023-11-21T07:17:37;9.80;74.20
30304;DHT22;17112;48.636;10.152;2023-11-21T07:20:03;9.70;74.10
30304;DHT22;17112;48.636;10.152;2023-11-21T07:22:29;9.80;74.30
30304;DHT22;17112;48.636;10.152;2023-11-21T07:24:55;9.70;74.20
30304;DHT22;17112;48.636;10.152;2023-11-21T07:27:24;9.70;74.20
30304;DHT22;17112;48.636;10.152;2023-11-21T07:29:49;9.70;74.30
30304;DHT22;17112;48.636;10.152;2023-11-21T07:32:15;9.70;74.40
30304;DHT22;17112;48.636;10.152;2023-11-21T07:34:41;9.70;74.50
30304;DHT22;17112;48.636;10.152;2023-11-21T07:37:07;9.70;74.70
30304;DHT22;17112;48.636;10.152;2023-11-21T07:39:34;9.70;74.90
30304;DHT22;17112;48.636;10.152;2023-11-21T07:42:01;9.70;74.90
30304;DHT22;17112;48.636;10.152;2023-11-21T07:44:28;9.70;75.10
30304;DHT22;17112;48.636;10.152;2023-11-21T07:46:54;9.80;75.30
30304;DHT22;17112;48.636;10.152;2023-11-21T07:49:25;9.90;75.60
30304;DHT22;17112;48.636;10.152;2023-11-21T07:51:52;9.90;75.70
30304;DHT22;17112;48.636;10.152;2023-11-21T07:54:18;10.10;75.70
30304;DHT22;17112;48.636;10.152;2023-11-21T07:56:43;10.20;75.60
30304;DHT22;17112;48.636;10.152;2023-11-21T07:59:09;10.30;75.40
30304;DHT22;17112;48.636;10.152;2023-11-21T08:01:35;10.40;75.10
30304;DHT22;17112;48.636;10.152;2023-11-21T08:04:00;10.40;74.80
30304;DHT22;17112;48.636;10.152;2023-11-21T08:06:32;10.50;74.70
30304;DHT22;17112;48.636;10.152;2023-11-21T08:08:58;10.60;74.50
30304;DHT22;17112;48.636;10.152;2023-11-21T08:11:24;10.60;74.40
30304;DHT22;17112;48.636;10.152;2023-11-21T08:13:50;10.70;74.50
30304;DHT22;17112;48.636;10.152;2023-11-21T08:16:15;10.70;74.50
30304;DHT22;17112;48.636;10.152;2023-11-21T08:18:42;10.80;74.60
30304;DHT22;17112;48.636;10.152;2023-11-21T08:21:08;10.80;74.50
30304;DHT22;17112;48.636;10.152;2023-11-21T08:23:34;10.80;74.50
30304;DHT22;17112;48.636;10.152;2023-11-21T08:26:00;10.80;74.50
30304;DHT22;17112;48.636;10.152;2023-11-21T08:28:26;10.90;74.50
30304;DHT22;17112;48.636;10.152;2023-11-21T08:30:52;10.90;74.50
30304;DHT22;17112;48.636;10.152;2023-11-21T08:33:19;10.90;74.30
30304;DHT22;17112;48.636;10.152;2023-11-21T08:35:45;11.00;74.20
30304;DHT22;17112;48.636;10.152;2023-11-21T08:38:11;11.00;74.20
30304;DHT22;17112;48.636;10.152;2023-11-21T08:40:37;11.00;74.20
30304;DHT22;17112;48.636;10.152;2023-11-21T08:43:03;11.10;74.30
30304;DHT22;17112;48.636;10.152;2023-11-21T08:45:32;11.10;74.40
30304;DHT22;17112;48.636;10.152;2023-11-21T08:48:00;11.10;74.30
30304;DHT22;17112;48.636;10.152;2023-11-21T08:50:27;11.20;74.20
30304;DHT22;17112;48.636;10.152;2023-11-21T08:52:53;11.20;74.20
30304;DHT22;17112;48.636;10.152;2023-11-21T08:55:19;11.20;74.30
30304;DHT22;17112;48.636;10.152;2023-11-21T08:57:45;11.30;74.50
30304;DHT22;17112;48.636;10.152;2023-11-21T09:00:14;11.40;74.50
30304;DHT22;17112;48.636;10.152;2023-11-21T09:02:42;11.50;74.50
30304;DHT22;17112;48.636;10.152;2023-11-21T09:05:12;11.50;74.40
30304;DHT22;17112;48.636;10.152;2023-11-21T09:07:39;11.60;74.50
30304;DHT22;17112;48.636;10.152;2023-11-21T09:10:06;11.70;74.40
30304;DHT22;17112;48.636;10.152;2023-11-21T09:12:33;11.80;74.40
30304;DHT22;17112;48.636;10.152;2023-11-21T09:15:04;11.90;74.10
30304;DHT22;17112;48.636;10.152;2023-11-21T09:17:31;12.00;73.90
30304;DHT22;17112;48.636;10.152;2023-11-21T09:19:57;12.10;73.80
30304;DHT22;17112;48.636;10.152;2023-11-21T09:22:22;12.20;73.60
30304;DHT22;17112;48.636;10.152;2023-11-21T09:24:50;12.30;73.30
30304;DHT22;17112;48.636;10.152;2023-11-21T09:27:16;12.30;73.00
30304;DHT22;17112;48.636;10.152;2023-11-21T09:29:43;12.40;72.50
30304;DHT22;17112;48.636;10.152;2023-11-21T09:32:08;12.40;72.10
30304;DHT22;17112;48.636;10.152;2023-11-21T09:34:38;12.40;71.80
30304;DHT22;17112;48.636;10.152;2023-11-21T09:37:04;12.40;71.40
30304;DHT22;17112;48.636;10.152;2023-11-21T09:39:32;12.40;71.60
30304;DHT22;17112;48.636;10.152;2023-11-21T09:42:23;12.40;71.70
30304;DHT22;17112;48.636;10.152;2023-11-21T09:47:30;12.40;70.70
30304;DHT22;17112;48.636;10.152;2023-11-21T09:49:59;12.40;71.10
30304;DHT22;17112;48.636;10.152;2023-11-21T09:52:27;12.40;71.30
30304;DHT22;17112;48.636;10.152;2023-11-21T09:54:54;12.40;71.50
30304;DHT22;17112;48.636;10.152;2023-11-21T09:57:24;12.40;71.40
30304;DHT22;17112;48.636;10.152;2023-11-21T09:59:52;12.40;71.30
30304;DHT22;17112;48.636;10.152;2023-11-21T10:02:26;12.40;71.00
30304;DHT22;17112;48.636;10.152;2023-11-21T10:04:54;12.40;71.00
30304;DHT22;17112;48.636;10.152;2023-11-21T10:07:21;12.40;71.10
30304;DHT22;17112;48.636;10.152;2023-11-21T10:09:47;12.40;71.30
30304;DHT22;17112;48.636;10.152;2023-11-21T10:12:15;12.40;72.30
30304;DHT22;17112;48.636;10.152;2023-11-21T10:14:41;12.40;71.70
30304;DHT22;17112;48.636;10.152;2023-11-21T10:17:08;12.50;71.90
30304;DHT22;17112;48.636;10.152;2023-11-21T10:19:38;12.50;71.70
30304;DHT22;17112;48.636;10.152;2023-11-21T10:22:05;12.60;71.10
30304;DHT22;17112;48.636;10.152;2023-11-21T10:24:32;12.60;71.10
30304;DHT22;17112;48.636;10.152;2023-11-21T10:26:58;12.70;70.70
30304;DHT22;17112;48.636;10.152;2023-11-21T10:29:25;12.70;70.70
30304;DHT22;17112;48.636;10.152;2023-11-21T10:31:54;12.80;71.10
30304;DHT22;17112;48.636;10.152;2023-11-21T10:34:20;12.80;71.10
30304;DHT22;17112;48.636;10.152;2023-11-21T10:36:47;12.90;71.00
30304;DHT22;17112;48.636;10.152;2023-11-21T10:39:17;12.90;70.80
30304;DHT22;17112;48.636;10.152;2023-11-21T10:41:45;13.00;70.60
30304;DHT22;17112;48.636;10.152;2023-11-21T10:44:17;13.00;70.00
30304;DHT22;17112;48.636;10.152;2023-11-21T10:46:48;13.00;69.60
30304;DHT22;17112;48.636;10.152;2023-11-21T10:49:20;13.00;69.40
30304;DHT22;17112;48.636;10.152;2023-11-21T10:51:50;13.00;69.20
30304;DHT22;17112;48.636;10.152;2023-11-21T10:54:21;13.00;69.50
30304;DHT22;17112;48.636;10.152;2023-11-21T10:56:55;12.90;69.30
30304;DHT22;17112;48.636;10.152;2023-11-21T10:59:22;12.90;69.20
30304;DHT22;17112;48.636;10.152;2023-11-21T11:01:50;13.00;69.50
30304;DHT22;17112;48.636;10.152;2023-11-21T11:04:18;12.90;69.70
30304;DHT22;17112;48.636;10.152;2023-11-21T11:06:51;12.90;70.60
30304;DHT22;17112;48.636;10.152;2023-11-21T11:09:19;12.90;69.90
30304;DHT22;17112;48.636;10.152;2023-11-21T11:11:46;13.00;70.00
30304;DHT22;17112;48.636;10.152;2023-11-21T11:14:12;13.00;70.10
30304;DHT22;17112;48.636;10.152;2023-11-21T11:16:40;13.10;70.00
30304;DHT22;17112;48.636;10.152;2023-11-21T11:19:11;13.10;69.90
30304;DHT22;17112;48.636;10.152;2023-11-21T11:25:03;13.20;70.20
30304;DHT22;17112;48.636;10.152;2023-11-21T11:27:54;13.30;68.90
30304;DHT22;17112;48.636;10.152;2023-11-21T11:35:33;13.20;68.80
30304;DHT22;17112;48.636;10.152;2023-11-21T11:37:59;13.30;68.90
30304;DHT22;17112;48.636;10.152;2023-11-21T11:40:41;13.20;68.90
30304;DHT22;17112;48.636;10.152;2023-11-21T11:43:10;13.20;68.60
30304;DHT22;17112;48.636;10.152;2023-11-21T11:45:36;13.20;69.00
30304;DHT22;17112;48.636;10.152;2023-11-21T11:48:06;13.20;69.10
30304;DHT22;17112;48.636;10.152;2023-11-21T11:50:32;13.20;69.20
30304;DHT22;17112;48.636;10.152;2023-11-21T11:53:15;13.20;69.20
30304;DHT22;17112;48.636;10.152;2023-11-21T11:55:41;13.30;68.70
30304;DHT22;17112;48.636;10.152;2023-11-21T11:58:07;13.30;68.90
30304;DHT22;17112;48.636;10.152;2023-11-21T12:00:34;13.30;68.50
30304;DHT22;17112;48.636;10.152;2023-11-21T12:03:03;13.40;68.10
30304;DHT22;17112;48.636;10.152;2023-11-21T12:05:31;13.30;68.10
30304;DHT22;17112;48.636;10.152;2023-11-21T12:08:09;13.30;67.90
30304;DHT22;17112;48.636;10.152;2023-11-21T12:10:37;13.20;67.00
30304;DHT22;17112;48.636;10.152;2023-11-21T12:13:11;13.20;67.40
30304;DHT22;17112;48.636;10.152;2023-11-21T12:15:38;13.10;67.30
30304;DHT22;17112;48.636;10.152;2023-11-21T12:18:06;13.10;67.40
30304;DHT22;17112;48.636;10.152;2023-11-21T12:20:32;12.90;67.40
30304;DHT22;17112;48.636;10.152;2023-11-21T12:23:04;12.80;67.40
30304;DHT22;17112;48.636;10.152;2023-11-21T12:25:31;12.80;67.60
30304;DHT22;17112;48.636;10.152;2023-11-21T12:27:59;12.70;67.90
30304;DHT22;17112;48.636;10.152;2023-11-21T12:30:27;12.70;68.30
30304;DHT22;17112;48.636;10.152;2023-11-21T12:33:02;12.70;68.40
30304;DHT22;17112;48.636;10.152;2023-11-21T12:35:33;12.70;68.50
30304;DHT22;17112;48.636;10.152;2023-11-21T12:38:03;12.70;68.00
30304;DHT22;17112;48.636;10.152;2023-11-21T12:40:30;12.80;68.20
30304;DHT22;17112;48.636;10.152;2023-11-21T12:42:57;12.80;68.30
30304;DHT22;17112;48.636;10.152;2023-11-21T12:45:25;12.80;68.40
30304;DHT22;17112;48.636;10.152;2023-11-21T12:47:57;12.90;68.70
30304;DHT22;17112;48.636;10.152;2023-11-21T12:50:27;12.90;68.80
30304;DHT22;17112;48.636;10.152;2023-11-21T12:53:05;13.00;68.80
30304;DHT22;17112;48.636;10.152;2023-11-21T12:55:35;13.20;68.70
30304;DHT22;17112;48.636;10.152;2023-11-21T12:58:08;13.30;68.40
30304;DHT22;17112;48.636;10.152;2023-11-21T13:00:39;13.40;67.80
30304;DHT22;17112;48.636;10.152;2023-11-21T13:03:08;13.50;67.50
30304;DHT22;17112;48.636;10.152;2023-11-21T13:05:38;13.50;67.40
30304;DHT22;17112;48.636;10.152;2023-11-21T13:08:06;13.60;67.20
30304;DHT22;17112;48.636;10.152;2023-11-21T13:10:35;13.60;66.80
30304;DHT22;17112;48.636;10.152;2023-11-21T13:13:06;13.50;66.40
30304;DHT22;17112;48.636;10.152;2023-11-21T13:15:39;13.50;66.20
30304;DHT22;17112;48.636;10.152;2023-11-21T13:18:06;13.40;66.10
30304;DHT22;17112;48.636;10.152;2023-11-21T13:20:32;13.30;66.10
30304;DHT22;17112;48.636;10.152;2023-11-21T13:22:58;13.20;66.40
30304;DHT22;17112;48.636;10.152;2023-11-21T13:25:28;13.10;66.60
30304;DHT22;17112;48.636;10.152;2023-11-21T13:27:58;13.10;66.90
30304;DHT22;17112;48.636;10.152;2023-11-21T13:30:27;13.10;67.10
30304;DHT22;17112;48.636;10.152;2023-11-21T13:32:59;13.00;67.10
30304;DHT22;17112;48.636;10.152;2023-11-21T13:35:30;13.10;68.30
30304;DHT22;17112;48.636;10.152;2023-11-21T13:38:04;13.10;67.90
30304;DHT22;17112;48.636;10.152;2023-11-21T13:40:31;13.10;67.90
30304;DHT22;17112;48.636;10.152;2023-11-21T13:42:57;13.10;67.70
30304;DHT22;17112;48.636;10.152;2023-11-21T13:45:25;13.10;67.50
30304;DHT22;17112;48.636;10.152;2023-11-21T13:47:53;13.20;67.50
30304;DHT22;17112;48.636;10.152;2023-11-21T13:50:27;13.10;67.50
30304;DHT22;17112;48.636;10.152;2023-11-21T13:52:59;13.10;67.20
30304;DHT22;17112;48.636;10.152;2023-11-21T13:55:42;13.10;67.20
30304;DHT22;17112;48.636;10.152;2023-11-21T13:58:07;13.10;67.30
30304;DHT22;17112;48.636;10.152;2023-11-21T14:00:37;13.10;67.50
30304;DHT22;17112;48.636;10.152;2023-11-21T14:03:17;13.10;67.20
30304;DHT22;17112;48.636;10.152;2023-11-21T14:05:49;13.00;67.00
30304;DHT22;17112;48.636;10.152;2023-11-21T14:08:21;13.10;67.10
30304;DHT22;17112;48.636;10.152;2023-11-21T14:10:49;13.00;67.20
30304;DHT22;17112;48.636;10.152;2023-11-21T14:13:21;13.00;67.10
30304;DHT22;17112;48.636;10.152;2023-11-21T14:15:49;13.00;67.10
30304;DHT22;17112;48.636;10.152;2023-11-21T14:18:25;12.90;67.10
30304;DHT22;17112;48.636;10.152;2023-11-21T14:21:04;13.00;67.30
30304;DHT22;17112;48.636;10.152;2023-11-21T14:23:31;12.90;67.20
30304;DHT22;17112;48.636;10.152;2023-11-21T14:25:56;12.90;67.30
30304;DHT22;17112;48.636;10.152;2023-11-21T14:28:23;12.90;67.30
30304;DHT22;17112;48.636;10.152;2023-11-21T14:30:49;12.90;67.10
30304;DHT22;17112;48.636;10.152;2023-11-21T14:33:14;12.90;66.70
30304;DHT22;17112;48.636;10.152;2023-11-21T14:35:42;12.80;66.30
30304;DHT22;17112;48.636;10.152;2023-11-21T14:38:08;12.80;66.40
30304;DHT22;17112;48.636;10.152;2023-11-21T14:40:35;12.70;66.50
30304;DHT22;17112;48.636;10.152;2023-11-21T14:43:02;12.70;66.50
30304;DHT22;17112;48.636;10.152;2023-11-21T14:45:33;12.60;66.60
30304;DHT22;17112;48.636;10.152;2023-11-21T14:48:00;12.50;66.90
30304;DHT22;17112;48.636;10.152;2023-11-21T14:50:33;12.50;67.00
30304;DHT22;17112;48.636;10.152;2023-11-21T14:53:16;12.40;67.10
30304;DHT22;17112;48.636;10.152;2023-11-21T14:55:48;12.30;67.30
30304;DHT22;17112;48.636;10.152;2023-11-21T14:58:18;12.20;67.50
30304;DHT22;17112;48.636;10.152;2023-11-21T15:00:54;12.10;67.90
30304;DHT22;17112;48.636;10.152;2023-11-21T15:03:24;12.10;68.10
30304;DHT22;17112;48.636;10.152;2023-11-21T15:06:12;12.00;68.20
30304;DHT22;17112;48.636;10.152;2023-11-21T15:08:49;12.00;68.30
30304;DHT22;17112;48.636;10.152;2023-11-21T15:11:21;11.90;68.30
30304;DHT22;17112;48.636;10.152;2023-11-21T15:13:53;11.90;68.40
30304;DHT22;17112;48.636;10.152;2023-11-21T15:16:19;11.80;68.60
30304;DHT22;17112;48.636;10.152;2023-11-21T15:18:45;11.80;69.00
30304;DHT22;17112;48.636;10.152;2023-11-21T15:21:10;11.70;69.10
30304;DHT22;17112;48.636;10.152;2023-11-21T15:23:38;11.70;69.20
30304;DHT22;17112;48.636;10.152;2023-11-21T15:26:04;11.60;69.40
30304;DHT22;17112;48.636;10.152;2023-11-21T15:28:30;11.60;69.70
30304;DHT22;17112;48.636;10.152;2023-11-21T15:30:58;11.60;69.70
30304;DHT22;17112;48.636;10.152;2023-11-21T15:33:24;11.50;69.70